Time;durP1;ratioP1;P1;durP2;ratioP2;P2;SDS_P1;SDS_P2;PMS_P1;PMS_P2;Temp;Humidity;BMP_temperature;BMP_pressure;BME280_temperature;BME280_humidity;BME280_pressure;Samples;Min_cycle;Max_cycle;Signal;HPM_P1;HPM_P2
2022/05/03 00:02:05;;;;;;;;;;;7.20;99.90;;;;;;5046078;28;19966;-83
2022/05/03 00:04:51;;;;;;;;;;;7.20;99.90;;;;;;5056118;28;19921;-83
2022/05/03 00:07:25;;;;;;;;;;;7.20;99.90;;;;;;5054412;28;19929;-82
2022/05/03 00:10:04;;;;;;;;;;;7.20;99.90;;;;;;5057171;28;19920;-82
2022/05/03 00:12:35;;;;;;;;;;;7.20;99.90;;;;;;5056646;28;20004;-82
2022/05/03 00:15:01;;;;;;;;;;;7.10;99.90;;;;;;5058766;28;19951;-82
2022/05/03 00:17:26;;;;;;;;;;;7.10;99.90;;;;;;5055399;28;20011;-82
2022/05/03 00:19:55;;;;;;;;;;;7.10;99.90;;;;;;5056020;28;19979;-82
2022/05/03 00:22:27;;;;;;;;;;;7.10;99.90;;;;;;5057126;28;20280;-82
2022/05/03 00:24:54;;;;;;;;;;;7.10;99.90;;;;;;5056626;28;19921;-81
2022/05/03 00:27:23;;;;;;;;;;;7.00;99.90;;;;;;5056330;28;19930;-82
2022/05/03 00:29:49;;;;;;;;;;;6.90;99.90;;;;;;5055664;28;20122;-83
2022/05/03 00:32:15;;;;;;;;;;;6.90;99.90;;;;;;5060483;28;20042;-82
2022/05/03 00:34:41;;;;;;;;;;;6.80;99.90;;;;;;5060770;28;19928;-84
2022/05/03 00:37:06;;;;;;;;;;;6.70;99.90;;;;;;5060922;28;19920;-84
2022/05/03 00:39:32;;;;;;;;;;;6.70;99.90;;;;;;5058086;28;19924;-82
2022/05/03 00:42:15;;;;;;;;;;;6.80;99.90;;;;;;5054526;28;19928;-82
2022/05/03 00:44:59;;;;;;;;;;;6.80;99.90;;;;;;5055858;28;19928;-83
2022/05/03 00:47:35;;;;;;;;;;;6.80;99.90;;;;;;5054124;28;19928;-83
2022/05/03 00:50:06;;;;;;;;;;;6.80;99.90;;;;;;5053715;28;19933;-83
2022/05/03 00:52:43;;;;;;;;;;;6.80;99.90;;;;;;5053614;28;20370;-82
2022/05/03 00:55:15;;;;;;;;;;;6.80;99.90;;;;;;5053426;28;19921;-82
2022/05/03 00:57:58;;;;;;;;;;;6.80;99.90;;;;;;5053254;28;20014;-82
2022/05/03 01:00:24;;;;;;;;;;;6.90;99.90;;;;;;5055182;28;19920;-82
2022/05/03 01:03:08;;;;;;;;;;;6.80;99.90;;;;;;5055224;28;19921;-82
2022/05/03 01:05:39;;;;;;;;;;;6.80;99.90;;;;;;5053800;28;20701;-82
2022/05/03 01:08:05;;;;;;;;;;;6.80;99.90;;;;;;5034023;28;20008;-82
2022/05/03 01:10:42;;;;;;;;;;;6.80;99.90;;;;;;5033979;28;19928;-82
2022/05/03 01:13:13;;;;;;;;;;;6.70;99.90;;;;;;5032967;28;20015;-82
2022/05/03 01:15:42;;;;;;;;;;;6.70;99.90;;;;;;5052541;28;19927;-82
2022/05/03 01:18:07;;;;;;;;;;;6.70;99.90;;;;;;5055034;28;20386;-82
2022/05/03 01:20:39;;;;;;;;;;;6.70;99.90;;;;;;5054044;28;19920;-82
2022/05/03 01:23:23;;;;;;;;;;;6.70;99.90;;;;;;5053391;28;19921;-83
2022/05/03 01:26:09;;;;;;;;;;;6.80;99.90;;;;;;5052731;28;19921;-83
2022/05/03 01:28:53;;;;;;;;;;;6.80;99.90;;;;;;5054076;28;19928;-83
2022/05/03 01:31:19;;;;;;;;;;;6.80;99.90;;;;;;5053500;28;19924;-83
2022/05/03 01:33:48;;;;;;;;;;;6.80;99.90;;;;;;5052577;28;19921;-83
2022/05/03 01:36:18;;;;;;;;;;;6.90;99.90;;;;;;5053958;28;19928;-82
2022/05/03 01:38:56;;;;;;;;;;;6.90;99.90;;;;;;5052985;28;19943;-82
2022/05/03 01:41:31;;;;;;;;;;;7.10;99.90;;;;;;5053134;28;20367;-82
2022/05/03 01:44:08;;;;;;;;;;;7.20;99.90;;;;;;5053768;28;19920;-82
2022/05/03 01:46:35;;;;;;;;;;;7.30;99.90;;;;;;5052752;28;19921;-82
2022/05/03 01:52:11;;;;;;;;;;;7.50;99.90;;;;;;5052864;28;19969;-83
2022/05/03 01:54:49;;;;;;;;;;;7.60;99.90;;;;;;5052254;28;19924;-82
2022/05/03 01:57:34;;;;;;;;;;;7.70;99.90;;;;;;5052427;28;20394;-82
2022/05/03 02:00:03;;;;;;;;;;;7.80;99.90;;;;;;5044678;28;19921;-83
2022/05/03 02:02:47;;;;;;;;;;;7.80;99.90;;;;;;5051678;28;19935;-82
2022/05/03 02:05:31;;;;;;;;;;;7.90;99.90;;;;;;5051602;28;19923;-82
2022/05/03 02:08:00;;;;;;;;;;;7.90;99.90;;;;;;5031405;28;19921;-83
2022/05/03 02:10:38;;;;;;;;;;;8.00;99.90;;;;;;5033540;28;19924;-83
2022/05/03 02:13:19;;;;;;;;;;;8.00;99.90;;;;;;5033072;28;19944;-83
2022/05/03 02:15:48;;;;;;;;;;;8.10;99.90;;;;;;5032011;28;19921;-83
2022/05/03 02:18:23;;;;;;;;;;;8.20;99.90;;;;;;5040611;28;19967;-84
2022/05/03 02:20:54;;;;;;;;;;;8.20;99.90;;;;;;5053257;28;19971;-83
2022/05/03 02:23:29;;;;;;;;;;;8.20;99.90;;;;;;5051658;28;19921;-82
2022/05/03 02:25:59;;;;;;;;;;;8.30;99.90;;;;;;5053281;28;19974;-83
2022/05/03 02:28:31;;;;;;;;;;;8.30;99.90;;;;;;5052108;28;19921;-83
2022/05/03 02:30:59;;;;;;;;;;;8.40;99.90;;;;;;5051077;28;20011;-83
2022/05/03 02:33:46;;;;;;;;;;;8.40;99.90;;;;;;5051481;28;20036;-82
2022/05/03 02:36:16;;;;;;;;;;;8.50;99.90;;;;;;5052187;28;20023;-82
2022/05/03 02:39:02;;;;;;;;;;;8.40;99.90;;;;;;5053116;28;20430;-82
2022/05/03 02:41:31;;;;;;;;;;;8.40;99.90;;;;;;5050946;28;19921;-83
2022/05/03 02:43:57;;;;;;;;;;;8.40;99.90;;;;;;5052707;28;19971;-83
2022/05/03 02:46:41;;;;;;;;;;;8.40;99.90;;;;;;5051601;28;20344;-82
2022/05/03 02:49:33;;;;;;;;;;;8.40;99.90;;;;;;5051064;28;19921;-82
2022/05/03 02:52:21;;;;;;;;;;;8.50;99.90;;;;;;5048056;28;19944;-81
2022/05/03 02:54:50;;;;;;;;;;;8.60;99.90;;;;;;5052745;28;20030;-83
2022/05/03 02:57:26;;;;;;;;;;;8.60;99.90;;;;;;5050226;28;19971;-82
2022/05/03 03:02:43;;;;;;;;;;;8.70;99.90;;;;;;5052525;28;20386;-82
2022/05/03 03:05:13;;;;;;;;;;;8.70;99.90;;;;;;5052277;28;20371;-82
2022/05/03 03:07:41;;;;;;;;;;;8.70;99.90;;;;;;5051360;28;19927;-82
2022/05/03 03:10:06;;;;;;;;;;;8.80;99.90;;;;;;5052591;28;19920;-82
2022/05/03 03:12:40;;;;;;;;;;;8.80;99.90;;;;;;5050616;28;19928;-82
2022/05/03 03:15:09;;;;;;;;;;;8.90;99.90;;;;;;5052387;28;19986;-82
2022/05/03 03:17:40;;;;;;;;;;;8.90;99.90;;;;;;5051394;28;20280;-83
2022/05/03 03:20:06;;;;;;;;;;;8.90;99.90;;;;;;5051886;28;20011;-83
2022/05/03 03:22:36;;;;;;;;;;;8.90;99.90;;;;;;5055372;28;20439;-82
2022/05/03 03:25:03;;;;;;;;;;;8.90;99.90;;;;;;5055686;28;19921;-82
2022/05/03 03:27:31;;;;;;;;;;;9.00;99.90;;;;;;5054695;28;19924;-83
2022/05/03 03:29:58;;;;;;;;;;;9.00;99.90;;;;;;5055428;28;20019;-83
2022/05/03 03:32:31;;;;;;;;;;;9.00;99.90;;;;;;5054542;28;19921;-82
2022/05/03 03:35:00;;;;;;;;;;;9.00;99.90;;;;;;5055456;28;19978;-83
2022/05/03 03:37:27;;;;;;;;;;;9.00;99.90;;;;;;5055035;28;19920;-83
2022/05/03 03:39:53;;;;;;;;;;;9.10;99.90;;;;;;5054827;28;19921;-82
2022/05/03 03:42:19;;;;;;;;;;;9.10;99.90;;;;;;5055956;28;19931;-83
2022/05/03 03:44:45;;;;;;;;;;;9.10;99.90;;;;;;5056454;28;19916;-83
2022/05/03 03:47:14;;;;;;;;;;;9.20;99.90;;;;;;5055285;28;19933;-83
2022/05/03 03:49:40;;;;;;;;;;;9.20;99.90;;;;;;5055872;28;20359;-83
2022/05/03 03:52:10;;;;;;;;;;;9.30;99.90;;;;;;5054569;28;19964;-83
2022/05/03 03:54:37;;;;;;;;;;;9.30;99.90;;;;;;5054249;28;19982;-83
2022/05/03 03:57:04;;;;;;;;;;;9.30;99.90;;;;;;5054457;28;19921;-83
2022/05/03 03:59:31;;;;;;;;;;;9.30;99.90;;;;;;5055761;28;19927;-83
2022/05/03 04:01:57;;;;;;;;;;;9.40;99.90;;;;;;5054480;28;20360;-83
2022/05/03 04:04:26;;;;;;;;;;;9.30;99.90;;;;;;5054123;28;19943;-83
2022/05/03 04:06:52;;;;;;;;;;;9.40;99.90;;;;;;5054524;28;19921;-83
2022/05/03 04:09:17;;;;;;;;;;;9.40;99.90;;;;;;5053573;28;19928;-83
2022/05/03 04:11:44;;;;;;;;;;;9.40;99.90;;;;;;5055508;28;19932;-83
2022/05/03 04:14:10;;;;;;;;;;;9.50;99.90;;;;;;5055324;28;20058;-83
2022/05/03 04:16:35;;;;;;;;;;;9.50;99.90;;;;;;5055556;28;19925;-83
2022/05/03 04:19:01;;;;;;;;;;;9.50;99.90;;;;;;5053927;28;19920;-83
2022/05/03 04:21:26;;;;;;;;;;;9.60;99.90;;;;;;5054996;28;19943;-82
2022/05/03 04:23:52;;;;;;;;;;;9.60;99.90;;;;;;5053775;28;20372;-83
2022/05/03 04:26:18;;;;;;;;;;;9.60;99.90;;;;;;5054227;28;19921;-82
2022/05/03 04:28:43;;;;;;;;;;;9.60;99.90;;;;;;5052734;28;20481;-82
2022/05/03 04:31:09;;;;;;;;;;;9.70;99.90;;;;;;5053487;28;19927;-82
2022/05/03 04:33:34;;;;;;;;;;;9.70;99.90;;;;;;5055230;28;20305;-82
2022/05/03 04:36:00;;;;;;;;;;;9.80;99.90;;;;;;5053226;28;19929;-82
2022/05/03 04:38:25;;;;;;;;;;;9.80;99.90;;;;;;5053934;28;19924;-82
2022/05/03 04:40:58;;;;;;;;;;;10.00;99.90;;;;;;5053569;28;19920;-82
2022/05/03 04:43:24;;;;;;;;;;;9.90;99.90;;;;;;5053209;28;20005;-82
2022/05/03 04:45:51;;;;;;;;;;;9.90;99.90;;;;;;5054732;28;20015;-82
2022/05/03 04:48:16;;;;;;;;;;;9.90;99.90;;;;;;5053210;28;19938;-82
2022/05/03 04:50:42;;;;;;;;;;;10.00;99.90;;;;;;5052235;28;20007;-82
2022/05/03 04:53:07;;;;;;;;;;;10.00;99.90;;;;;;5052930;28;19925;-83
2022/05/03 04:55:37;;;;;;;;;;;10.10;99.90;;;;;;5053945;28;20284;-82
2022/05/03 04:58:02;;;;;;;;;;;10.10;99.90;;;;;;5052811;28;20007;-82
2022/05/03 05:00:28;;;;;;;;;;;10.10;99.90;;;;;;5055136;28;20024;-82
2022/05/03 05:02:53;;;;;;;;;;;10.10;99.90;;;;;;5053411;28;20434;-82
2022/05/03 05:05:19;;;;;;;;;;;10.20;99.90;;;;;;5053541;28;19928;-81
2022/05/03 05:07:45;;;;;;;;;;;10.10;99.90;;;;;;5033323;28;19947;-82
2022/05/03 05:10:28;;;;;;;;;;;10.20;99.90;;;;;;5048397;28;19952;-82
2022/05/03 05:12:54;;;;;;;;;;;10.20;99.90;;;;;;5062063;28;20010;-82
2022/05/03 05:15:23;;;;;;;;;;;10.20;99.90;;;;;;5059331;28;19920;-82
2022/05/03 05:17:49;;;;;;;;;;;10.20;99.90;;;;;;5072742;28;20011;-84
2022/05/03 05:20:15;;;;;;;;;;;10.20;99.90;;;;;;5072602;28;19985;-81
2022/05/03 05:22:42;;;;;;;;;;;10.20;99.90;;;;;;5054039;28;19927;-83
2022/05/03 05:25:08;;;;;;;;;;;10.20;99.90;;;;;;5052196;28;20555;-81
2022/05/03 05:27:33;;;;;;;;;;;10.20;99.90;;;;;;5054462;28;19927;-81
2022/05/03 05:30:03;;;;;;;;;;;10.20;99.90;;;;;;5052548;28;19921;-82
2022/05/03 05:32:29;;;;;;;;;;;10.30;99.90;;;;;;5053219;28;20007;-82
2022/05/03 05:34:56;;;;;;;;;;;10.30;99.90;;;;;;5052842;28;19964;-78
2022/05/03 05:37:21;;;;;;;;;;;10.30;99.90;;;;;;5053719;28;19920;-80
2022/05/03 05:39:47;;;;;;;;;;;10.30;99.90;;;;;;5053242;28;19921;-85
2022/05/03 05:42:12;;;;;;;;;;;10.30;99.90;;;;;;5051921;28;19934;-75
2022/05/03 05:44:39;;;;;;;;;;;10.30;99.90;;;;;;5053998;28;19921;-80
2022/05/03 05:47:05;;;;;;;;;;;11.50;99.90;;;;;;5052049;28;19996;-74
2022/05/03 05:49:31;;;;;;;;;;;10.30;99.90;;;;;;5052687;28;20015;-78
2022/05/03 05:53:31;;;;;;;;;;;10.30;99.90;;;;;;5053577;28;19921;-75
2022/05/03 05:54:44;;;;;;;;;;;10.30;99.90;;;;;;5072657;28;19924;-77
2022/05/03 05:57:12;;;;;;;;;;;10.30;99.90;;;;;;5054392;28;20054;-76
2022/05/03 05:59:38;;;;;;;;;;;10.20;99.90;;;;;;5053951;28;19928;-78
2022/05/03 06:02:03;;;;;;;;;;;10.10;99.90;;;;;;5051967;28;19921;-76
2022/05/03 06:04:33;;;;;;;;;;;10.00;99.90;;;;;;5053681;28;19942;-76
2022/05/03 06:06:59;;;;;;;;;;;10.00;99.90;;;;;;5052638;28;20384;-73
2022/05/03 06:09:25;;;;;;;;;;;9.90;99.90;;;;;;5066664;28;19959;-81
2022/05/03 06:11:50;;;;;;;;;;;9.90;99.90;;;;;;5073414;28;19990;-81
2022/05/03 06:14:16;;;;;;;;;;;9.80;99.90;;;;;;5060911;28;19979;-85
2022/05/03 06:16:48;;;;;;;;;;;9.80;99.90;;;;;;5052212;28;20007;-85
2022/05/03 06:19:14;;;;;;;;;;;9.70;99.90;;;;;;5034884;28;20382;-79
2022/05/03 06:21:40;;;;;;;;;;;9.70;99.90;;;;;;5051274;28;19924;-81
2022/05/03 06:24:06;;;;;;;;;;;9.80;99.90;;;;;;5052914;28;19924;-81
2022/05/03 06:26:32;;;;;;;;;;;9.70;99.90;;;;;;5058309;28;20448;-79
2022/05/03 06:28:58;;;;;;;;;;;9.70;99.90;;;;;;5064691;28;19943;-80
2022/05/03 06:31:24;;;;;;;;;;;9.80;99.90;;;;;;5066706;28;19965;-80
2022/05/03 06:33:50;;;;;;;;;;;9.80;99.90;;;;;;5066934;28;19920;-80
2022/05/03 06:36:16;;;;;;;;;;;9.80;99.90;;;;;;5061304;28;19988;-81
2022/05/03 06:38:42;;;;;;;;;;;10.20;99.90;;;;;;5061331;28;19926;-81
2022/05/03 06:41:08;;;;;;;;;;;10.00;99.90;;;;;;5050142;28;19921;-80
2022/05/03 06:43:34;;;;;;;;;;;9.90;99.90;;;;;;5050763;28;20350;-82
2022/05/03 06:45:59;;;;;;;;;;;9.90;99.90;;;;;;5052435;28;20015;-82
2022/05/03 06:48:25;;;;;;;;;;;9.90;99.90;;;;;;5065093;28;19920;-84
2022/05/03 06:50:50;;;;;;;;;;;9.90;99.90;;;;;;5067626;28;20359;-78
2022/05/03 06:53:16;;;;;;;;;;;10.00;99.90;;;;;;5070125;28;19959;-80
2022/05/03 06:55:41;;;;;;;;;;;10.00;99.90;;;;;;5072088;28;19927;-81
2022/05/03 06:58:07;;;;;;;;;;;9.90;99.90;;;;;;5055053;28;19921;-78
2022/05/03 07:00:32;;;;;;;;;;;10.00;99.90;;;;;;5065272;28;20384;-76
2022/05/03 07:02:58;;;;;;;;;;;10.00;99.90;;;;;;5056237;28;20360;-78
2022/05/03 07:05:24;;;;;;;;;;;10.00;99.90;;;;;;5063352;28;20295;-85
2022/05/03 07:07:49;;;;;;;;;;;10.10;99.90;;;;;;5050784;28;19921;-85
2022/05/03 07:10:15;;;;;;;;;;;10.10;99.90;;;;;;5054598;28;20371;-84
2022/05/03 07:12:40;;;;;;;;;;;10.20;99.90;;;;;;5052611;28;19933;-82
2022/05/03 07:15:07;;;;;;;;;;;10.20;99.90;;;;;;5050981;28;19925;-83
2022/05/03 07:23:06;;;;;;;;;;;10.30;99.90;;;;;;5050130;28;19927;-83
2022/05/03 07:25:31;;;;;;;;;;;10.30;99.90;;;;;;5050095;28;19921;-83
2022/05/03 07:27:57;;;;;;;;;;;10.40;99.90;;;;;;5052160;28;19921;-83
2022/05/03 07:30:23;;;;;;;;;;;10.50;99.90;;;;;;5045945;28;19932;-84
2022/05/03 07:32:48;;;;;;;;;;;10.60;99.90;;;;;;5046632;28;19920;-84
2022/05/03 07:35:14;;;;;;;;;;;10.60;99.90;;;;;;5057745;28;19920;-83
2022/05/03 07:37:43;;;;;;;;;;;10.60;99.90;;;;;;5052531;28;19927;-84
2022/05/03 07:40:09;;;;;;;;;;;10.70;99.90;;;;;;5051847;28;20007;-83
2022/05/03 07:42:35;;;;;;;;;;;10.80;99.90;;;;;;5050861;28;19929;-85
2022/05/03 07:45:01;;;;;;;;;;;10.90;99.90;;;;;;5052049;28;19925;-82
2022/05/03 07:47:26;;;;;;;;;;;10.90;99.90;;;;;;5052079;28;20003;-83
2022/05/03 07:49:53;;;;;;;;;;;11.00;99.90;;;;;;5052250;28;19920;-83
2022/05/03 07:52:18;;;;;;;;;;;11.20;99.90;;;;;;5050233;28;19920;-81
2022/05/03 07:54:44;;;;;;;;;;;11.30;99.90;;;;;;5051508;28;20376;-82
2022/05/03 07:57:11;;;;;;;;;;;11.40;99.90;;;;;;5052232;28;19973;-82
2022/05/03 07:59:36;;;;;;;;;;;12.30;99.90;;;;;;5051728;28;19925;-82
2022/05/03 08:02:02;;;;;;;;;;;11.70;99.90;;;;;;5050896;28;19921;-84
2022/05/03 08:04:27;;;;;;;;;;;11.90;99.90;;;;;;5064997;28;19963;-84
2022/05/03 08:06:53;;;;;;;;;;;12.00;99.90;;;;;;5068246;28;19927;-81
2022/05/03 08:09:18;;;;;;;;;;;12.00;99.90;;;;;;5055436;28;20261;-85
2022/05/03 08:11:44;;;;;;;;;;;12.20;99.90;;;;;;5055792;28;20003;-83
2022/05/03 08:14:09;;;;;;;;;;;12.20;99.90;;;;;;5056592;28;20279;-82
2022/05/03 08:16:35;;;;;;;;;;;12.30;99.90;;;;;;5056028;28;19921;-83
2022/05/03 08:19:01;;;;;;;;;;;12.40;99.90;;;;;;5055585;28;19943;-84
2022/05/03 08:21:32;;;;;;;;;;;12.50;99.90;;;;;;5054313;28;19929;-84
2022/05/03 08:23:58;;;;;;;;;;;12.50;99.90;;;;;;5055477;28;20437;-81
2022/05/03 08:26:24;;;;;;;;;;;12.60;99.90;;;;;;5054178;28;19959;-83
2022/05/03 08:28:49;;;;;;;;;;;12.70;99.90;;;;;;5042397;28;19921;-84
2022/05/03 08:31:15;;;;;;;;;;;12.70;99.90;;;;;;5042545;28;19921;-84
2022/05/03 08:33:41;;;;;;;;;;;12.80;99.90;;;;;;5056879;28;19921;-83
2022/05/03 08:36:06;;;;;;;;;;;12.90;99.90;;;;;;5053258;28;20295;-83
2022/05/03 08:44:06;;;;;;;;;;;13.10;99.90;;;;;;5072218;22;20015;-76
2022/05/03 08:46:35;;;;;;;;;;;13.00;99.90;;;;;;5126079;22;19927;-80
2022/05/03 08:49:05;;;;;;;;;;;13.00;99.90;;;;;;5073258;28;20401;-81
2022/05/03 08:51:31;;;;;;;;;;;13.00;99.90;;;;;;5073021;28;19926;-77
2022/05/03 08:54:00;;;;;;;;;;;13.60;99.90;;;;;;5078904;28;20314;-72
2022/05/03 08:56:26;;;;;;;;;;;12.90;99.90;;;;;;5074496;28;20069;-74
2022/05/03 08:58:55;;;;;;;;;;;13.70;99.90;;;;;;5074214;28;19921;-84
2022/05/03 09:01:20;;;;;;;;;;;13.00;99.90;;;;;;5074052;28;19932;-79
2022/05/03 09:03:46;;;;;;;;;;;13.00;99.90;;;;;;5070724;28;19924;-80
2022/05/03 09:06:12;;;;;;;;;;;13.10;99.90;;;;;;5071520;28;20422;-80
2022/05/03 09:08:39;;;;;;;;;;;13.40;99.90;;;;;;5071808;28;20019;-79
2022/05/03 09:11:17;;;;;;;;;;;13.10;99.90;;;;;;5078799;28;19920;-79
2022/05/03 09:13:43;;;;;;;;;;;13.30;99.90;;;;;;5078612;28;19922;-80
2022/05/03 09:16:13;;;;;;;;;;;13.40;99.90;;;;;;5074236;28;19928;-79
2022/05/03 09:18:39;;;;;;;;;;;13.40;99.90;;;;;;5073315;28;19924;-80
2022/05/03 09:24:03;;;;;;;;;;;13.60;99.90;;;;;;5073644;28;19974;-80
2022/05/03 09:26:30;;;;;;;;;;;13.70;99.90;;;;;;5077029;28;20368;-80
2022/05/03 09:29:01;;;;;;;;;;;13.90;99.90;;;;;;5074661;28;19920;-80
2022/05/03 09:31:31;;;;;;;;;;;14.00;99.90;;;;;;5073991;28;19920;-80
2022/05/03 09:33:57;;;;;;;;;;;14.10;99.90;;;;;;5074251;28;20074;-80
2022/05/03 09:36:23;;;;;;;;;;;14.00;99.90;;;;;;5072771;28;19920;-80
2022/05/03 09:38:50;;;;;;;;;;;14.10;99.90;;;;;;5073618;28;19930;-80
2022/05/03 09:41:15;;;;;;;;;;;14.20;99.90;;;;;;5076274;28;19923;-79
2022/05/03 09:44:00;;;;;;;;;;;14.30;99.90;;;;;;5079287;28;19921;-80
2022/05/03 09:46:26;;;;;;;;;;;14.50;99.90;;;;;;5087616;28;20000;-80
2022/05/03 09:48:53;;;;;;;;;;;14.50;99.90;;;;;;5080875;28;20013;-79
2022/05/03 09:51:18;;;;;;;;;;;14.40;99.90;;;;;;5090720;28;19934;-80
2022/05/03 09:53:57;;;;;;;;;;;14.40;99.90;;;;;;5071838;28;19925;-81
2022/05/03 09:56:26;;;;;;;;;;;14.20;99.30;;;;;;5072838;28;19926;-80
2022/05/03 09:58:55;;;;;;;;;;;14.70;99.90;;;;;;5072277;28;19967;-80
2022/05/03 10:01:20;;;;;;;;;;;14.50;99.60;;;;;;5072961;28;19927;-80
2022/05/03 10:03:47;;;;;;;;;;;14.50;99.30;;;;;;5071225;28;19920;-80
2022/05/03 10:06:14;;;;;;;;;;;14.40;98.80;;;;;;5071555;28;19924;-80
2022/05/03 10:08:39;;;;;;;;;;;14.50;99.20;;;;;;5061733;28;20268;-79
2022/05/03 10:11:05;;;;;;;;;;;14.50;98.30;;;;;;5052129;28;19920;-80
2022/05/03 10:13:30;;;;;;;;;;;14.70;98.50;;;;;;5057781;28;19968;-80
2022/05/03 10:21:36;;;;;;;;;;;15.60;96.50;;;;;;5083300;28;20006;-80
2022/05/03 10:24:06;;;;;;;;;;;15.60;95.90;;;;;;5074986;28;19925;-79
2022/05/03 10:26:52;;;;;;;;;;;15.80;97.30;;;;;;5078045;28;19964;-78
2022/05/03 10:29:21;;;;;;;;;;;15.90;96.40;;;;;;5448470;22;19934;-78
2022/05/03 10:32:03;;;;;;;;;;;16.00;96.20;;;;;;5074190;28;19927;-78
2022/05/03 10:34:41;;;;;;;;;;;16.00;95.30;;;;;;5071292;28;19924;-78
2022/05/03 10:37:07;;;;;;;;;;;15.90;95.20;;;;;;5072886;28;20003;-78
2022/05/03 10:39:33;;;;;;;;;;;15.80;95.40;;;;;;5071894;28;19974;-78
2022/05/03 10:42:00;;;;;;;;;;;16.00;96.60;;;;;;5071244;28;19921;-78
2022/05/03 10:44:48;;;;;;;;;;;15.80;95.70;;;;;;5071786;28;19920;-78
2022/05/03 10:47:18;;;;;;;;;;;15.80;96.70;;;;;;5071520;28;19924;-79
2022/05/03 10:50:02;;;;;;;;;;;15.80;97.00;;;;;;5071322;28;19924;-79
2022/05/03 10:52:27;;;;;;;;;;;15.90;95.80;;;;;;5073261;28;19966;-79
2022/05/03 10:55:06;;;;;;;;;;;16.00;95.10;;;;;;5075868;28;19924;-78
2022/05/03 10:57:32;;;;;;;;;;;16.10;96.00;;;;;;5086277;28;19989;-79
2022/05/03 10:59:57;;;;;;;;;;;16.00;95.40;;;;;;5092013;28;20305;-78
2022/05/03 11:02:23;;;;;;;;;;;16.50;95.40;;;;;;5072592;28;20543;-78
2022/05/03 11:05:07;;;;;;;;;;;16.00;95.50;;;;;;5072358;28;19946;-78
2022/05/03 11:07:33;;;;;;;;;;;16.50;95.80;;;;;;5077055;28;19920;-78
2022/05/03 11:10:19;;;;;;;;;;;16.50;94.40;;;;;;5080903;28;19920;-78
2022/05/03 11:12:54;;;;;;;;;;;16.40;94.80;;;;;;5072684;28;19964;-78
2022/05/03 11:15:19;;;;;;;;;;;16.10;95.10;;;;;;5070934;28;20016;-78
2022/05/03 11:17:45;;;;;;;;;;;15.90;94.50;;;;;;5070934;28;20023;-78
2022/05/03 11:20:10;;;;;;;;;;;15.90;95.10;;;;;;5071307;28;19963;-78
2022/05/03 11:22:36;;;;;;;;;;;15.90;95.30;;;;;;5072854;28;19921;-78
2022/05/03 11:25:12;;;;;;;;;;;15.90;94.70;;;;;;5070961;28;19921;-78
2022/05/03 11:27:38;;;;;;;;;;;15.90;95.10;;;;;;5071437;28;19947;-78
2022/05/03 11:30:08;;;;;;;;;;;16.00;95.10;;;;;;5072130;28;19925;-78
2022/05/03 11:32:37;;;;;;;;;;;16.10;94.90;;;;;;5070329;28;19924;-78
2022/05/03 11:35:04;;;;;;;;;;;16.50;94.80;;;;;;5072659;28;19921;-78
2022/05/03 11:37:30;;;;;;;;;;;16.70;94.40;;;;;;5072182;28;20015;-78
2022/05/03 11:40:03;;;;;;;;;;;17.00;94.80;;;;;;5071707;28;20022;-78
2022/05/03 11:42:35;;;;;;;;;;;16.80;94.30;;;;;;5074342;28;20007;-78
2022/05/03 11:45:00;;;;;;;;;;;16.60;94.30;;;;;;5074373;28;20378;-78
2022/05/03 11:47:26;;;;;;;;;;;16.70;93.90;;;;;;5074699;28;19958;-78
2022/05/03 11:49:52;;;;;;;;;;;16.90;93.30;;;;;;5076381;28;19943;-78
2022/05/03 11:55:58;;;;;;;;;;;17.30;93.70;;;;;;5076455;28;19964;-78
2022/05/03 11:57:59;;;;;;;;;;;17.40;91.90;;;;;;5075786;28;19970;-78
2022/05/03 12:00:24;;;;;;;;;;;17.50;92.80;;;;;;5074803;28;19959;-78
2022/05/03 12:02:50;;;;;;;;;;;17.90;92.30;;;;;;5081629;28;20015;-78
2022/05/03 12:05:18;;;;;;;;;;;18.20;93.40;;;;;;5095136;28;19920;-78
2022/05/03 12:07:44;;;;;;;;;;;18.10;91.00;;;;;;5094612;28;20457;-79
2022/05/03 12:10:16;;;;;;;;;;;18.10;90.60;;;;;;5094779;28;19927;-78
2022/05/03 12:12:45;;;;;;;;;;;17.90;92.00;;;;;;5091098;28;19963;-78
2022/05/03 12:15:21;;;;;;;;;;;17.70;91.80;;;;;;5095749;28;19920;-78
2022/05/03 12:17:55;;;;;;;;;;;17.40;91.50;;;;;;5076857;28;19927;-78
2022/05/03 12:20:21;;;;;;;;;;;17.30;91.00;;;;;;5073968;28;20367;-78
2022/05/03 12:23:08;;;;;;;;;;;17.60;91.90;;;;;;5074684;28;19946;-78
2022/05/03 12:28:57;;;;;;;;;;;18.30;91.50;;;;;;5075037;28;20299;-78
2022/05/03 12:31:35;;;;;;;;;;;18.60;90.80;;;;;;5013172;28;20016;-78
2022/05/03 12:34:01;;;;;;;;;;;18.30;88.60;;;;;;5066728;28;19921;-78
2022/05/03 12:36:26;;;;;;;;;;;18.00;89.90;;;;;;5076067;28;19974;-78
2022/05/03 12:38:52;;;;;;;;;;;18.20;89.40;;;;;;5086792;28;19925;-78
2022/05/03 12:41:25;;;;;;;;;;;18.20;90.30;;;;;;5073443;28;20661;-78
2022/05/03 12:44:09;;;;;;;;;;;18.00;90.20;;;;;;5074293;28;19921;-78
2022/05/03 12:46:38;;;;;;;;;;;18.00;89.10;;;;;;5074075;28;19921;-78
2022/05/03 12:49:05;;;;;;;;;;;18.20;90.70;;;;;;5073351;28;20023;-78
2022/05/03 12:51:32;;;;;;;;;;;18.30;89.50;;;;;;5086166;28;19920;-78
2022/05/03 12:54:00;;;;;;;;;;;18.00;90.60;;;;;;5086287;28;19920;-78
2022/05/03 12:59:13;;;;;;;;;;;18.10;90.50;;;;;;5073314;28;19920;-78
2022/05/03 13:01:41;;;;;;;;;;;18.20;90.20;;;;;;5074782;28;19967;-77
2022/05/03 13:04:10;;;;;;;;;;;17.80;89.10;;;;;;5073895;28;20380;-77
2022/05/03 13:06:36;;;;;;;;;;;17.70;89.60;;;;;;5074938;28;19921;-77
2022/05/03 13:09:04;;;;;;;;;;;18.00;89.50;;;;;;5072359;28;20265;-77
2022/05/03 13:11:34;;;;;;;;;;;17.90;88.60;;;;;;5075435;28;20003;-78
2022/05/03 13:14:00;;;;;;;;;;;18.00;90.40;;;;;;5076525;28;20268;-77
2022/05/03 13:16:26;;;;;;;;;;;18.00;87.20;;;;;;5074521;28;20050;-77
2022/05/03 13:19:01;;;;;;;;;;;17.50;87.00;;;;;;5073327;28;19963;-77
2022/05/03 13:21:27;;;;;;;;;;;16.80;90.40;;;;;;5074666;28;20409;-77
2022/05/03 13:23:53;;;;;;;;;;;17.20;91.10;;;;;;5072129;28;19921;-77
2022/05/03 13:26:19;;;;;;;;;;;17.50;89.90;;;;;;5072770;28;19924;-78
2022/05/03 13:28:44;;;;;;;;;;;17.50;89.20;;;;;;5073177;28;19927;-77
2022/05/03 13:31:10;;;;;;;;;;;17.00;88.50;;;;;;5072503;28;19974;-77
2022/05/03 13:33:35;;;;;;;;;;;17.10;90.20;;;;;;5073071;28;19991;-77
2022/05/03 13:41:30;;;;;;;;;;;17.40;88.80;;;;;;5074127;28;19920;-77
2022/05/03 13:43:58;;;;;;;;;;;17.60;88.80;;;;;;5073073;28;19930;-77
2022/05/03 13:46:23;;;;;;;;;;;17.30;89.60;;;;;;5072747;28;19924;-77
2022/05/03 13:48:49;;;;;;;;;;;17.10;87.70;;;;;;5074123;28;19981;-77
2022/05/03 13:51:14;;;;;;;;;;;17.10;87.90;;;;;;5071792;28;19924;-78
2022/05/03 13:53:40;;;;;;;;;;;17.50;89.10;;;;;;5072716;28;19924;-77
2022/05/03 13:56:05;;;;;;;;;;;17.60;87.60;;;;;;5073580;28;20371;-78
2022/05/03 13:58:31;;;;;;;;;;;17.40;87.60;;;;;;5072421;28;19939;-78
2022/05/03 14:00:57;;;;;;;;;;;17.40;90.00;;;;;;5072751;28;19946;-77
2022/05/03 14:03:22;;;;;;;;;;;17.50;88.60;;;;;;5071811;28;19920;-77
2022/05/03 14:05:48;;;;;;;;;;;17.30;89.00;;;;;;5071992;28;19923;-79
2022/05/03 14:08:13;;;;;;;;;;;17.20;90.60;;;;;;5073702;28;20368;-79
2022/05/03 14:10:40;;;;;;;;;;;17.40;89.10;;;;;;5072136;28;19924;-79
2022/05/03 14:13:06;;;;;;;;;;;16.90;89.10;;;;;;5072758;28;19927;-79
2022/05/03 14:15:31;;;;;;;;;;;16.60;89.70;;;;;;5074057;28;19925;-79
2022/05/03 14:17:57;;;;;;;;;;;16.00;89.00;;;;;;5073607;28;19920;-79
2022/05/03 14:20:22;;;;;;;;;;;16.00;90.30;;;;;;5071601;28;19921;-78
2022/05/03 14:22:48;;;;;;;;;;;16.10;90.70;;;;;;5073690;28;20398;-78
2022/05/03 14:25:14;;;;;;;;;;;16.00;90.90;;;;;;5073205;28;20035;-79
2022/05/03 14:27:40;;;;;;;;;;;16.30;89.80;;;;;;5071614;28;20427;-79
2022/05/03 14:30:07;;;;;;;;;;;16.20;90.10;;;;;;5071540;28;19994;-79
2022/05/03 14:32:33;;;;;;;;;;;16.10;90.10;;;;;;5084479;28;19920;-79
2022/05/03 14:34:59;;;;;;;;;;;15.70;90.90;;;;;;5089618;28;19966;-79
2022/05/03 14:37:24;;;;;;;;;;;15.70;90.90;;;;;;5093421;28;19920;-79
2022/05/03 14:39:50;;;;;;;;;;;15.70;90.60;;;;;;5083614;28;20376;-79
2022/05/03 14:42:17;;;;;;;;;;;15.90;90.40;;;;;;5071324;28;19920;-79
2022/05/03 14:44:42;;;;;;;;;;;16.00;90.90;;;;;;5072384;28;19920;-79
2022/05/03 14:47:08;;;;;;;;;;;15.70;90.10;;;;;;5071767;28;19970;-79
2022/05/03 14:49:34;;;;;;;;;;;15.60;90.40;;;;;;5071433;28;20390;-79
2022/05/03 14:52:05;;;;;;;;;;;15.20;90.30;;;;;;5071289;28;19917;-79
2022/05/03 14:54:33;;;;;;;;;;;15.00;90.80;;;;;;5074391;28;19921;-79
2022/05/03 15:05:11;;;;;;;;;;;14.90;91.70;;;;;;5074771;28;19920;-79
2022/05/03 15:07:36;;;;;;;;;;;15.10;91.80;;;;;;5091287;28;19969;-80
2022/05/03 15:10:02;;;;;;;;;;;14.90;92.40;;;;;;5079194;28;19928;-80
2022/05/03 15:12:28;;;;;;;;;;;14.90;92.50;;;;;;5075391;28;19920;-80
2022/05/03 15:14:54;;;;;;;;;;;14.80;92.70;;;;;;5073118;28;20304;-80
2022/05/03 15:17:20;;;;;;;;;;;14.60;92.50;;;;;;5073729;28;19928;-80
2022/05/03 15:19:45;;;;;;;;;;;14.60;92.60;;;;;;5081882;28;19920;-80